createdAt,value
2019-05-30T00:00:37.085Z,100577.45
2019-05-30T00:02:43.753Z,100574.72
2019-05-30T00:04:50.306Z,100578.20
2019-05-30T00:06:56.991Z,100579.89
2019-05-30T00:09:07.872Z,100572.37
2019-05-30T00:11:14.437Z,100567.91
2019-05-30T00:13:21.141Z,100575.23
2019-05-30T00:15:27.713Z,100578.62
2019-05-30T00:17:34.198Z,100584.25
2019-05-30T00:19:40.668Z,100586.84
2019-05-30T00:21:47.156Z,100590.30
2019-05-30T00:23:53.540Z,100592.41
2019-05-30T00:26:01.276Z,100589.73
2019-05-30T00:28:08.864Z,100588.80
2019-05-30T00:30:24.486Z,100589.97
2019-05-30T00:32:25.343Z,100595.16
2019-05-30T00:34:31.951Z,100605.68
2019-05-30T00:36:38.597Z,100606.01
2019-05-30T00:38:46.133Z,100605.11
2019-05-30T00:40:52.670Z,100605.86
2019-05-30T00:43:00.193Z,100597.44
2019-05-30T00:45:19.806Z,100599.97
2019-05-30T00:47:16.436Z,100599.45
2019-05-30T00:49:22.919Z,100601.51
2019-05-30T00:51:29.393Z,100611.08
2019-05-30T00:53:35.920Z,100604.44
2019-05-30T00:55:42.398Z,100608.70
2019-05-30T00:57:49.989Z,100607.24
2019-05-30T00:59:56.819Z,100607.13
2019-05-30T01:02:03.403Z,100604.77
2019-05-30T01:04:09.927Z,100609.86
2019-05-30T01:06:16.478Z,100616.31
2019-05-30T01:08:22.930Z,100616.68
2019-05-30T01:10:29.540Z,100616.10
2019-05-30T01:12:36.106Z,100613.31
2019-05-30T01:14:42.855Z,100612.25
2019-05-30T01:16:49.294Z,100622.64
2019-05-30T01:18:56.925Z,100617.63
2019-05-30T01:21:03.894Z,100621.36
2019-05-30T01:23:10.382Z,100623.45
2019-05-30T01:25:17.120Z,100624.22
2019-05-30T01:27:23.516Z,100626.31
2019-05-30T01:29:29.900Z,100617.38
2019-05-30T01:31:36.458Z,100617.69
2019-05-30T01:33:42.996Z,100611.00
2019-05-30T01:35:49.479Z,100608.62
2019-05-30T01:37:55.875Z,100616.03
2019-05-30T01:40:02.353Z,100617.68
2019-05-30T01:42:09.980Z,100608.39
2019-05-30T01:44:16.452Z,100606.13
2019-05-30T01:46:22.906Z,100609.53
2019-05-30T01:48:29.366Z,100603.16
2019-05-30T01:50:35.918Z,100602.99
2019-05-30T01:52:42.437Z,100600.73
2019-05-30T01:54:49.985Z,100605.39
2019-05-30T01:56:56.384Z,100601.73
2019-05-30T01:59:02.922Z,100602.03
2019-05-30T02:01:22.364Z,100610.56
2019-05-30T02:03:17.680Z,100601.66
2019-05-30T02:05:25.267Z,100605.48
2019-05-30T02:07:31.757Z,100603.22
2019-05-30T02:09:38.345Z,100612.70
2019-05-30T02:11:44.869Z,100607.42
2019-05-30T02:13:51.277Z,100604.75
2019-05-30T02:15:57.729Z,100603.80
2019-05-30T02:18:05.617Z,100599.33
2019-05-30T02:20:12.971Z,100601.47
2019-05-30T02:22:19.414Z,100602.78
2019-05-30T02:24:25.835Z,100601.00
2019-05-30T02:26:32.228Z,100602.31
2019-05-30T02:28:38.724Z,100597.89
2019-05-30T02:30:45.101Z,100597.48
2019-05-30T02:32:51.550Z,100600.58
2019-05-30T02:34:58.007Z,100596.59
2019-05-30T02:37:06.094Z,100602.66
2019-05-30T02:39:12.942Z,100606.13
2019-05-30T02:41:19.704Z,100600.44
2019-05-30T02:43:26.217Z,100604.37
2019-05-30T02:45:32.773Z,100600.88
2019-05-30T02:47:39.178Z,100606.59
2019-05-30T02:49:45.683Z,100606.23
2019-05-30T02:51:52.310Z,100617.68
2019-05-30T02:53:58.863Z,100622.14
2019-05-30T02:56:05.998Z,100624.50
2019-05-30T02:58:14.018Z,100614.13
2019-05-30T03:00:25.088Z,100620.37
2019-05-30T03:02:31.561Z,100616.15
2019-05-30T03:04:38.005Z,100617.13
2019-05-30T03:06:44.827Z,100624.75
2019-05-30T03:08:51.366Z,100620.15
2019-05-30T03:10:57.953Z,100625.66
2019-05-30T03:13:06.299Z,100624.98
2019-05-30T03:15:15.517Z,100631.35
2019-05-30T03:17:22.607Z,100630.27
2019-05-30T03:19:29.159Z,100634.28
2019-05-30T03:21:35.687Z,100633.14
2019-05-30T03:23:42.292Z,100636.05
2019-05-30T03:25:48.882Z,100635.23
2019-05-30T03:27:55.424Z,100652.03
2019-05-30T03:30:05.102Z,100653.45
2019-05-30T03:32:51.423Z,100651.55
2019-05-30T03:34:27.588Z,100654.34
2019-05-30T03:36:31.365Z,100654.47
2019-05-30T03:38:36.489Z,100663.03
2019-05-30T03:40:43.194Z,100665.59
2019-05-30T03:42:49.987Z,100667.48
2019-05-30T03:44:56.518Z,100667.77
2019-05-30T03:47:08.631Z,100665.34
2019-05-30T03:49:19.787Z,100657.22
2019-05-30T03:51:28.786Z,100659.33
2019-05-30T03:53:35.827Z,100661.38
2019-05-30T03:55:46.818Z,100659.06
2019-05-30T03:58:10.028Z,100667.05
2019-05-30T04:00:42.434Z,100665.59
2019-05-30T04:02:59.043Z,100671.07
2019-05-30T04:05:14.197Z,100672.88
2019-05-30T04:07:24.339Z,100659.69
2019-05-30T04:09:34.295Z,100660.67
2019-05-30T04:12:03.129Z,100656.55
2019-05-30T04:14:15.680Z,100650.86
2019-05-30T04:16:22.039Z,100646.64
2019-05-30T04:18:28.504Z,100652.00
2019-05-30T04:20:37.224Z,100642.64
2019-05-30T04:22:43.627Z,100657.50
2019-05-30T04:24:50.626Z,100652.18
2019-05-30T04:26:57.040Z,100658.41
2019-05-30T04:29:03.574Z,100653.80
2019-05-30T04:31:10.143Z,100653.16
2019-05-30T04:33:29.106Z,100667.52
2019-05-30T04:35:24.856Z,100659.25
2019-05-30T04:37:31.311Z,100674.63
2019-05-30T04:39:37.784Z,100663.72
2019-05-30T04:41:44.365Z,100663.55
2019-05-30T04:43:50.796Z,100664.03
2019-05-30T04:45:57.190Z,100676.86
2019-05-30T04:48:03.728Z,100686.06
2019-05-30T04:50:12.098Z,100682.58
2019-05-30T04:52:23.990Z,100685.81
2019-05-30T04:54:26.869Z,100681.80
2019-05-30T04:56:33.271Z,100680.34
2019-05-30T04:58:42.340Z,100679.39
2019-05-30T05:00:48.058Z,100676.41
2019-05-30T05:02:54.449Z,100681.64
2019-05-30T05:05:00.865Z,100680.59
2019-05-30T05:07:07.470Z,100674.61
2019-05-30T05:09:14.074Z,100672.83
2019-05-30T05:11:24.931Z,100676.53
2019-05-30T05:13:29.379Z,100677.18
2019-05-30T05:15:35.829Z,100684.19
2019-05-30T05:17:42.333Z,100684.66
2019-05-30T05:19:48.785Z,100687.05
2019-05-30T05:21:55.200Z,100681.86
2019-05-30T05:24:01.991Z,100688.28
2019-05-30T05:26:08.436Z,100691.41
2019-05-30T05:28:15.783Z,100692.54
2019-05-30T05:30:22.799Z,100690.75
2019-05-30T05:32:29.228Z,100691.63
2019-05-30T05:34:35.694Z,100691.47
2019-05-30T05:36:42.080Z,100699.26
2019-05-30T05:38:48.576Z,100699.59
2019-05-30T05:40:55.110Z,100694.54
2019-05-30T05:43:01.574Z,100700.97
2019-05-30T05:45:09.707Z,100692.33
2019-05-30T05:47:18.488Z,100704.68
2019-05-30T05:49:25.531Z,100702.62
2019-05-30T05:51:31.797Z,100689.81
2019-05-30T05:53:38.254Z,100692.00
2019-05-30T05:55:44.754Z,100691.41
2019-05-30T05:57:51.278Z,100703.50
2019-05-30T05:59:57.770Z,100698.45
2019-05-30T06:02:04.251Z,100704.05
2019-05-30T06:04:13.546Z,100699.72
2019-05-30T06:06:19.260Z,100691.35
2019-05-30T06:08:25.961Z,100701.69
2019-05-30T06:10:32.457Z,100697.45
2019-05-30T06:12:38.947Z,100708.23
2019-05-30T06:14:45.379Z,100706.03
2019-05-30T06:16:53.706Z,100708.00
2019-05-30T06:18:59.896Z,100705.42
2019-05-30T06:21:06.677Z,100711.37
2019-05-30T06:23:13.159Z,100715.09
2019-05-30T06:25:24.016Z,100705.27
2019-05-30T06:27:28.141Z,100706.40
2019-05-30T06:29:34.611Z,100708.25
2019-05-30T06:31:41.177Z,100706.55
2019-05-30T06:33:47.656Z,100710.39
2019-05-30T06:35:54.125Z,100712.81
2019-05-30T06:38:00.519Z,100707.92
2019-05-30T06:40:08.806Z,100708.19
2019-05-30T06:42:15.381Z,100710.47
2019-05-30T06:44:21.939Z,100710.58
2019-05-30T06:46:28.455Z,100720.62
2019-05-30T06:48:35.068Z,100713.57
2019-05-30T06:50:41.539Z,100720.91
2019-05-30T06:52:48.019Z,100719.77
2019-05-30T06:54:54.502Z,100717.97
2019-05-30T06:57:01.049Z,100710.56
2019-05-30T06:59:07.760Z,100714.19
2019-05-30T07:01:14.232Z,100713.99
2019-05-30T07:03:22.034Z,100718.40
2019-05-30T07:05:30.583Z,100721.27
2019-05-30T07:07:37.286Z,100723.86
2019-05-30T07:09:44.314Z,100727.61
2019-05-30T07:11:50.856Z,100730.77
2019-05-30T07:13:57.406Z,100723.16
2019-05-30T07:16:03.885Z,100720.27
2019-05-30T07:18:10.599Z,100726.09
2019-05-30T07:20:19.131Z,100718.94
2019-05-30T07:22:25.731Z,100729.82
2019-05-30T07:24:32.281Z,100727.08
2019-05-30T07:26:38.709Z,100725.45
2019-05-30T07:28:45.142Z,100728.77
2019-05-30T07:30:51.622Z,100720.42
2019-05-30T07:32:58.024Z,100722.41
2019-05-30T07:35:07.545Z,100733.25
2019-05-30T07:37:14.283Z,100726.34
2019-05-30T07:39:20.814Z,100712.11
2019-05-30T07:41:27.568Z,100720.27
2019-05-30T07:43:35.357Z,100727.66
2019-05-30T07:45:45.610Z,100726.89
2019-05-30T07:47:50.065Z,100722.80
2019-05-30T07:49:56.520Z,100725.13
2019-05-30T07:52:02.957Z,100729.01
2019-05-30T07:54:09.554Z,100731.32
2019-05-30T07:56:15.993Z,100734.38
2019-05-30T07:58:22.541Z,100725.93
2019-05-30T08:00:29.368Z,100727.00
2019-05-30T08:02:35.969Z,100726.70
2019-05-30T08:04:42.372Z,100728.61
2019-05-30T08:06:48.783Z,100728.33
2019-05-30T08:08:55.312Z,100725.61
2019-05-30T08:11:09.511Z,100732.07
2019-05-30T08:13:09.872Z,100726.93
2019-05-30T08:15:16.891Z,100729.28
2019-05-30T08:17:23.309Z,100719.35
2019-05-30T08:19:29.770Z,100720.44
2019-05-30T08:21:38.308Z,100718.46
2019-05-30T08:23:44.786Z,100716.81
2019-05-30T08:25:51.283Z,100719.82
2019-05-30T08:27:57.704Z,100724.31
2019-05-30T08:30:10.281Z,100715.78
2019-05-30T08:32:16.886Z,100707.81
2019-05-30T08:34:23.346Z,100713.55
2019-05-30T08:36:30.863Z,100712.49
2019-05-30T08:38:37.466Z,100709.20
2019-05-30T08:40:44.000Z,100717.48
2019-05-30T08:42:50.405Z,100713.15
2019-05-30T08:44:56.861Z,100719.43
2019-05-30T08:47:03.278Z,100722.16
2019-05-30T08:49:09.717Z,100726.30
2019-05-30T08:51:16.177Z,100729.55
2019-05-30T08:53:22.648Z,100725.80
2019-05-30T08:55:30.213Z,100727.55
2019-05-30T08:57:36.840Z,100726.45
2019-05-30T08:59:44.844Z,100725.44
2019-05-30T09:01:53.299Z,100721.49
2019-05-30T09:04:00.086Z,100720.66
2019-05-30T09:06:06.620Z,100713.93
2019-05-30T09:08:13.316Z,100709.30
2019-05-30T09:10:19.933Z,100715.77
2019-05-30T09:12:26.504Z,100711.73
2019-05-30T09:14:33.105Z,100707.17
2019-05-30T09:16:39.742Z,100708.37
2019-05-30T09:18:47.454Z,100711.41
2019-05-30T09:20:54.085Z,100718.19
2019-05-30T09:23:00.473Z,100709.81
2019-05-30T09:25:13.187Z,100715.84
2019-05-30T09:27:19.712Z,100715.53
2019-05-30T09:29:26.366Z,100711.73
2019-05-30T09:31:32.920Z,100711.94
2019-05-30T09:33:40.840Z,100711.55
2019-05-30T09:35:47.506Z,100712.45
2019-05-30T09:37:54.286Z,100708.41
2019-05-30T09:40:00.940Z,100705.62
2019-05-30T09:42:08.603Z,100699.48
2019-05-30T09:44:15.096Z,100699.72
2019-05-30T09:46:23.299Z,100699.84
2019-05-30T09:48:30.411Z,100702.78
2019-05-30T09:50:36.961Z,100693.18
2019-05-30T09:52:44.021Z,100700.69
2019-05-30T09:54:52.600Z,100702.59
2019-05-30T09:56:59.148Z,100694.09
2019-05-30T09:59:05.853Z,100690.30
2019-05-30T10:01:12.517Z,100690.56
2019-05-30T10:03:19.154Z,100698.73
2019-05-30T10:05:26.559Z,100698.98
2019-05-30T10:07:33.177Z,100698.73
2019-05-30T10:09:39.656Z,100698.37
2019-05-30T10:11:47.202Z,100688.20
2019-05-30T10:13:53.989Z,100686.83
2019-05-30T10:16:00.455Z,100688.53
2019-05-30T10:18:07.064Z,100682.44
2019-05-30T10:20:14.572Z,100683.84
2019-05-30T10:22:21.018Z,100681.84
2019-05-30T10:24:28.328Z,100670.64
2019-05-30T10:26:34.828Z,100681.73
2019-05-30T10:28:41.357Z,100672.95
2019-05-30T10:30:53.414Z,100679.61
2019-05-30T10:32:56.140Z,100674.82
2019-05-30T10:35:02.796Z,100670.16
2019-05-30T10:37:09.341Z,100673.97
2019-05-30T10:39:15.807Z,100658.79
2019-05-30T10:41:22.277Z,100668.91
2019-05-30T10:43:29.684Z,100669.42
2019-05-30T10:45:38.636Z,100668.54
2019-05-30T10:47:45.791Z,100660.67
2019-05-30T10:49:53.536Z,100659.24
2019-05-30T10:52:00.274Z,100657.49
2019-05-30T10:54:06.824Z,100658.38
2019-05-30T10:56:13.308Z,100663.33
2019-05-30T10:58:19.953Z,100665.78
2019-05-30T11:00:47.266Z,100666.14
2019-05-30T11:02:55.000Z,100656.48
2019-05-30T11:05:01.685Z,100656.91
2019-05-30T11:07:33.869Z,100653.95
2019-05-30T11:09:48.703Z,100664.55
2019-05-30T11:11:55.351Z,100657.74
2019-05-30T11:14:01.942Z,100658.81
2019-05-30T11:16:08.561Z,100665.71
2019-05-30T11:18:15.247Z,100667.27
2019-05-30T11:20:22.678Z,100667.87
2019-05-30T11:22:29.360Z,100665.64
2019-05-30T11:24:36.030Z,100663.41
2019-05-30T11:26:42.571Z,100657.59
2019-05-30T11:28:50.443Z,100659.44
2019-05-30T11:30:57.158Z,100653.30
2019-05-30T11:33:03.699Z,100661.01
2019-05-30T11:35:10.537Z,100654.73
2019-05-30T11:37:18.754Z,100655.53
2019-05-30T11:39:25.160Z,100645.77
2019-05-30T11:41:31.596Z,100654.72
2019-05-30T11:43:37.995Z,100654.25
2019-05-30T11:45:44.564Z,100655.17
2019-05-30T11:47:51.748Z,100657.52
2019-05-30T11:50:00.357Z,100655.27
2019-05-30T11:52:08.266Z,100653.80
2019-05-30T11:54:14.677Z,100646.56
2019-05-30T11:56:21.164Z,100643.78
2019-05-30T11:58:27.637Z,100650.33
2019-05-30T12:00:34.438Z,100646.83
2019-05-30T12:02:40.839Z,100648.00
2019-05-30T12:04:47.353Z,100640.58
2019-05-30T12:06:54.677Z,100642.53
2019-05-30T12:09:01.349Z,100643.87
2019-05-30T12:11:09.741Z,100643.64
2019-05-30T12:13:16.140Z,100645.93
2019-05-30T12:15:24.254Z,100637.80
2019-05-30T12:17:30.779Z,100643.13
2019-05-30T12:19:38.392Z,100633.72
2019-05-30T12:21:44.876Z,100637.36
2019-05-30T12:23:54.280Z,100645.99
2019-05-30T12:26:00.710Z,100641.63
2019-05-30T12:28:07.872Z,100639.25
2019-05-30T12:30:15.767Z,100641.51
2019-05-30T12:32:22.156Z,100637.53
2019-05-30T12:34:28.545Z,100636.02
2019-05-30T12:36:35.087Z,100634.44
2019-05-30T12:38:41.547Z,100633.14
2019-05-30T12:40:48.022Z,100632.36
2019-05-30T12:42:57.645Z,100638.64
2019-05-30T12:45:07.038Z,100641.41
2019-05-30T12:47:12.153Z,100642.03
2019-05-30T12:49:18.627Z,100639.68
2019-05-30T12:51:25.161Z,100639.73
2019-05-30T12:53:31.575Z,100636.66
2019-05-30T12:55:38.174Z,100635.20
2019-05-30T12:57:44.770Z,100634.31
2019-05-30T12:59:51.310Z,100637.63
2019-05-30T13:01:58.958Z,100626.20
2019-05-30T13:04:07.360Z,100625.84
2019-05-30T13:06:14.082Z,100621.47
2019-05-30T13:08:21.961Z,100634.93
2019-05-30T13:10:28.962Z,100631.80
2019-05-30T13:12:35.625Z,100632.64
2019-05-30T13:14:42.090Z,100637.73
2019-05-30T13:16:48.681Z,100633.52
2019-05-30T13:18:55.910Z,100621.11
2019-05-30T13:21:02.573Z,100631.13
2019-05-30T13:23:09.205Z,100630.63
2019-05-30T13:25:18.251Z,100625.73
2019-05-30T13:27:24.864Z,100636.05
2019-05-30T13:29:31.334Z,100627.37
2019-05-30T13:31:37.836Z,100626.92
2019-05-30T13:33:44.324Z,100627.50
2019-05-30T13:35:50.807Z,100628.86
2019-05-30T13:37:57.567Z,100619.34
2019-05-30T13:40:23.608Z,100617.33
2019-05-30T13:42:16.770Z,100620.69
2019-05-30T13:44:23.237Z,100617.94
2019-05-30T13:46:29.734Z,100620.13
2019-05-30T13:48:36.190Z,100618.56
2019-05-30T13:50:43.481Z,100622.45
2019-05-30T13:52:50.090Z,100613.97
2019-05-30T13:54:56.556Z,100615.10
2019-05-30T13:57:05.808Z,100611.29
2019-05-30T13:59:12.606Z,100609.90
2019-05-30T14:01:19.223Z,100609.07
2019-05-30T14:03:25.758Z,100609.41
2019-05-30T14:05:32.365Z,100609.33
2019-05-30T14:07:38.977Z,100607.84
2019-05-30T14:09:45.468Z,100608.80
2019-05-30T14:11:51.878Z,100609.02
2019-05-30T14:13:58.407Z,100599.34
2019-05-30T14:16:04.948Z,100600.44
2019-05-30T14:18:11.432Z,100600.02
2019-05-30T14:20:19.345Z,100596.98
2019-05-30T14:22:25.931Z,100599.77
2019-05-30T14:24:32.476Z,100587.77
2019-05-30T14:26:39.012Z,100593.70
2019-05-30T14:28:45.592Z,100587.70
2019-05-30T14:30:52.095Z,100591.89
2019-05-30T14:32:58.725Z,100593.22
2019-05-30T14:35:08.465Z,100600.97
2019-05-30T14:37:15.112Z,100598.09
2019-05-30T14:39:21.796Z,100594.89
2019-05-30T14:41:28.230Z,100595.60
2019-05-30T14:43:34.680Z,100591.18
2019-05-30T14:45:41.223Z,100583.23
2019-05-30T14:47:48.602Z,100585.88
2019-05-30T14:49:54.994Z,100586.48
2019-05-30T14:52:02.698Z,100587.92
2019-05-30T14:54:09.143Z,100581.05
2019-05-30T14:56:15.610Z,100589.99
2019-05-30T14:58:22.080Z,100583.11
2019-05-30T15:00:28.620Z,100592.20
2019-05-30T15:02:35.093Z,100587.11
2019-05-30T15:04:41.591Z,100586.44
2019-05-30T15:06:48.048Z,100583.45
2019-05-30T15:08:54.695Z,100572.40
2019-05-30T15:11:01.200Z,100581.10
2019-05-30T15:13:07.617Z,100576.52
2019-05-30T15:15:18.457Z,100574.25
2019-05-30T15:17:24.666Z,100577.95
2019-05-30T15:19:32.660Z,100568.36
2019-05-30T15:21:39.152Z,100578.57
2019-05-30T15:23:45.608Z,100577.50
2019-05-30T15:25:52.251Z,100580.84
2019-05-30T15:27:58.651Z,100576.51
2019-05-30T15:30:08.405Z,100574.48
2019-05-30T15:32:15.089Z,100575.13
2019-05-30T15:34:21.616Z,100576.20
2019-05-30T15:36:28.162Z,100564.88
2019-05-30T15:38:34.636Z,100563.82
2019-05-30T15:40:41.133Z,100563.17
2019-05-30T15:42:47.744Z,100564.86
2019-05-30T15:44:54.206Z,100560.75
2019-05-30T15:47:00.631Z,100562.02
2019-05-30T15:49:08.083Z,100559.75
2019-05-30T15:51:14.876Z,100553.36
2019-05-30T15:53:21.490Z,100548.63
2019-05-30T15:55:28.009Z,100552.89
2019-05-30T15:57:34.426Z,100558.75
2019-05-30T15:59:40.822Z,100552.22
2019-05-30T16:01:47.266Z,100550.88
2019-05-30T16:03:53.803Z,100548.92
2019-05-30T16:06:00.272Z,100553.69
2019-05-30T16:08:06.868Z,100552.45
2019-05-30T16:10:14.873Z,100549.45
2019-05-30T16:12:21.511Z,100548.90
2019-05-30T16:14:29.303Z,100546.28
2019-05-30T16:16:40.203Z,100545.05
2019-05-30T16:18:43.800Z,100542.05
2019-05-30T16:20:50.293Z,100545.62
2019-05-30T16:22:56.893Z,100545.34
2019-05-30T16:25:04.351Z,100547.48
2019-05-30T16:27:10.921Z,100551.72
2019-05-30T16:29:17.694Z,100548.54
2019-05-30T16:31:24.393Z,100545.86
2019-05-30T16:33:30.811Z,100547.55
2019-05-30T16:35:37.486Z,100546.11
2019-05-30T16:37:43.937Z,100546.04
2019-05-30T16:40:04.527Z,100539.75
2019-05-30T16:41:58.512Z,100532.66
2019-05-30T16:44:05.054Z,100543.81
2019-05-30T16:46:11.594Z,100544.34
2019-05-30T16:48:18.386Z,100552.11
2019-05-30T16:50:27.051Z,100550.44
2019-05-30T16:52:33.590Z,100553.03
2019-05-30T16:54:40.140Z,100562.59
2019-05-30T16:56:46.844Z,100561.38
2019-05-30T16:58:54.957Z,100553.66
2019-05-30T17:01:01.453Z,100563.48
2019-05-30T17:03:08.091Z,100561.22
2019-05-30T17:05:15.832Z,100567.17
2019-05-30T17:07:23.416Z,100575.72
2019-05-30T17:09:29.928Z,100568.45
2019-05-30T17:11:36.599Z,100574.28
2019-05-30T17:13:43.072Z,100574.30
2019-05-30T17:15:49.536Z,100569.42
2019-05-30T17:17:56.022Z,100570.40
2019-05-30T17:20:02.499Z,100570.62
2019-05-30T17:22:09.000Z,100569.54
2019-05-30T17:24:16.871Z,100567.99
2019-05-30T17:26:27.408Z,100572.73
2019-05-30T17:28:33.292Z,100572.64
2019-05-30T17:30:39.760Z,100564.03
2019-05-30T17:32:46.224Z,100556.27
2019-05-30T17:34:52.729Z,100557.38
2019-05-30T17:36:59.189Z,100562.94
2019-05-30T17:39:09.110Z,100565.77
2019-05-30T17:41:15.567Z,100558.82
2019-05-30T17:43:22.938Z,100559.01
2019-05-30T17:45:30.670Z,100564.09
2019-05-30T17:47:37.145Z,100569.95
2019-05-30T17:49:43.603Z,100575.41
2019-05-30T17:51:50.114Z,100571.04
2019-05-30T17:53:56.497Z,100574.28
2019-05-30T17:56:02.964Z,100572.16
2019-05-30T17:58:10.419Z,100574.91
2019-05-30T18:00:18.000Z,100580.36
2019-05-30T18:02:24.486Z,100580.42
2019-05-30T18:04:31.133Z,100582.73
2019-05-30T18:06:37.593Z,100592.13
2019-05-30T18:08:43.990Z,100591.32
2019-05-30T18:10:53.686Z,100593.58
2019-05-30T18:12:58.638Z,100589.17
2019-05-30T18:15:09.449Z,100595.02
2019-05-30T18:17:15.925Z,100601.70
2019-05-30T18:19:25.185Z,100591.95
2019-05-30T18:21:31.907Z,100595.09
2019-05-30T18:23:38.334Z,100605.80
2019-05-30T18:25:44.837Z,100604.94
2019-05-30T18:27:51.241Z,100604.97
2019-05-30T18:29:57.705Z,100605.48
2019-05-30T18:32:04.175Z,100606.39
2019-05-30T18:34:10.944Z,100612.20
2019-05-30T18:36:18.451Z,100606.93
2019-05-30T18:38:26.376Z,100615.85
2019-05-30T18:40:37.243Z,100611.03
2019-05-30T18:42:43.759Z,100611.05
2019-05-30T18:44:50.324Z,100612.00
2019-05-30T18:46:56.902Z,100611.13
2019-05-30T18:49:03.482Z,100620.48
2019-05-30T18:51:09.943Z,100614.33
2019-05-30T18:53:16.392Z,100613.45
2019-05-30T18:55:22.865Z,100616.17
2019-05-30T18:57:29.299Z,100616.69
2019-05-30T18:59:37.287Z,100615.38
2019-05-30T19:01:44.224Z,100620.73
2019-05-30T19:03:51.622Z,100625.22
2019-05-30T19:05:58.095Z,100619.01
2019-05-30T19:08:06.089Z,100612.84
2019-05-30T19:10:13.689Z,100615.98
2019-05-30T19:12:20.118Z,100628.41
2019-05-30T19:14:29.735Z,100628.00
2019-05-30T19:16:34.749Z,100628.00
2019-05-30T19:18:41.385Z,100629.77
2019-05-30T19:20:47.980Z,100628.47
2019-05-30T19:22:54.429Z,100624.47
2019-05-30T19:25:00.916Z,100628.91
2019-05-30T19:27:07.459Z,100633.37
2019-05-30T19:29:14.114Z,100629.81
2019-05-30T19:31:20.850Z,100633.80
2019-05-30T19:33:28.730Z,100635.12
2019-05-30T19:35:35.479Z,100627.14
2019-05-30T19:37:42.035Z,100635.12
2019-05-30T19:39:48.513Z,100633.34
2019-05-30T19:41:57.407Z,100634.27
2019-05-30T19:44:03.248Z,100635.14
2019-05-30T19:46:13.195Z,100636.02
2019-05-30T19:48:18.886Z,100639.12
2019-05-30T19:50:25.427Z,100636.92
2019-05-30T19:52:32.624Z,100637.37
2019-05-30T19:54:40.212Z,100639.12
2019-05-30T19:56:46.686Z,100642.22
2019-05-30T19:58:54.067Z,100641.77
2019-05-30T20:01:00.513Z,100653.71
2019-05-30T20:03:07.180Z,100658.13
2019-05-30T20:05:14.012Z,100658.59
2019-05-30T20:07:20.547Z,100658.14
2019-05-30T20:09:27.099Z,100655.02
2019-05-30T20:11:33.568Z,100652.81
2019-05-30T20:13:41.298Z,100657.23
2019-05-30T20:15:48.035Z,100651.02
2019-05-30T20:17:54.489Z,100651.02
2019-05-30T20:20:00.971Z,100651.45
2019-05-30T20:22:08.770Z,100651.88
2019-05-30T20:24:15.332Z,100652.78
2019-05-30T20:26:21.856Z,100651.88
2019-05-30T20:28:28.327Z,100658.95
2019-05-30T20:30:34.972Z,100653.61
2019-05-30T20:32:41.906Z,100655.83
2019-05-30T20:34:49.727Z,100660.69
2019-05-30T20:36:56.628Z,100658.94
2019-05-30T20:39:03.551Z,100658.47
2019-05-30T20:41:10.105Z,100656.69
2019-05-30T20:43:17.484Z,100660.66
2019-05-30T20:45:24.801Z,100659.78
2019-05-30T20:47:31.377Z,100661.08
2019-05-30T20:49:39.081Z,100665.48
2019-05-30T20:51:45.643Z,100670.36
2019-05-30T20:53:54.749Z,100667.66
2019-05-30T20:56:00.637Z,100668.52
2019-05-30T20:58:07.119Z,100672.08
2019-05-30T21:00:18.159Z,100666.73
2019-05-30T21:02:28.980Z,100672.89
2019-05-30T21:04:34.652Z,100669.34
2019-05-30T21:06:43.023Z,100667.11
2019-05-30T21:08:51.736Z,100665.73
2019-05-30T21:11:03.213Z,100666.59
2019-05-30T21:13:11.230Z,100662.55
2019-05-30T21:15:18.178Z,100665.62
2019-05-30T21:17:26.864Z,100662.94
2019-05-30T21:19:33.437Z,100666.89
2019-05-30T21:21:40.229Z,100672.11
2019-05-30T21:23:46.917Z,100669.34
2019-05-30T21:25:54.852Z,100669.69
2019-05-30T21:28:01.307Z,100677.56
2019-05-30T21:30:10.486Z,100677.08
2019-05-30T21:32:18.065Z,100675.67
2019-05-30T21:34:24.592Z,100671.68
2019-05-30T21:36:31.070Z,100680.05
2019-05-30T21:38:37.864Z,100684.90
2019-05-30T21:40:44.613Z,100688.88
2019-05-30T21:43:04.651Z,100683.98
2019-05-30T21:44:59.361Z,100682.23
2019-05-30T21:47:10.221Z,100685.35
2019-05-30T21:49:16.770Z,100684.48
2019-05-30T21:51:23.314Z,100680.52
2019-05-30T21:53:31.026Z,100679.18
2019-05-30T21:55:37.512Z,100676.11
2019-05-30T21:57:44.080Z,100680.56
2019-05-30T21:59:50.841Z,100679.69
2019-05-30T22:01:57.811Z,100685.50
2019-05-30T22:04:05.400Z,100688.63
2019-05-30T22:06:11.971Z,100686.42
2019-05-30T22:08:18.515Z,100688.64
2019-05-30T22:10:26.319Z,100677.61
2019-05-30T22:12:32.895Z,100683.38
2019-05-30T22:14:39.354Z,100681.59
2019-05-30T22:16:46.035Z,100681.14
2019-05-30T22:18:52.664Z,100682.91
2019-05-30T22:21:01.064Z,100673.16
2019-05-30T22:23:10.779Z,100673.59
2019-05-30T22:25:16.027Z,100685.97
2019-05-30T22:27:22.555Z,100681.52
2019-05-30T22:29:29.052Z,100689.01
2019-05-30T22:31:35.793Z,100685.42
2019-05-30T22:33:42.667Z,100677.45
2019-05-30T22:35:49.351Z,100679.18
2019-05-30T22:37:55.765Z,100681.79
2019-05-30T22:40:02.346Z,100678.20
2019-05-30T22:42:08.927Z,100679.08
2019-05-30T22:44:15.343Z,100679.04
2019-05-30T22:46:21.887Z,100681.22
2019-05-30T22:48:28.497Z,100681.63
2019-05-30T22:50:36.112Z,100687.35
2019-05-30T22:52:42.713Z,100686.48
2019-05-30T22:54:49.208Z,100683.83
2019-05-30T22:56:57.015Z,100687.38
2019-05-30T22:59:03.726Z,100686.06
2019-05-30T23:01:10.157Z,100683.45
2019-05-30T23:03:16.661Z,100685.70
2019-05-30T23:05:24.313Z,100688.38
2019-05-30T23:07:30.801Z,100686.64
2019-05-30T23:09:37.348Z,100684.91
2019-05-30T23:11:43.954Z,100682.73
2019-05-30T23:13:50.531Z,100678.34
2019-05-30T23:15:56.998Z,100685.47
2019-05-30T23:18:03.533Z,100677.09
2019-05-30T23:20:10.776Z,100685.10
2019-05-30T23:22:17.314Z,100668.75
2019-05-30T23:24:23.878Z,100674.96
2019-05-30T23:26:30.556Z,100670.11
2019-05-30T23:28:37.117Z,100666.61
2019-05-30T23:30:43.695Z,100672.81
2019-05-30T23:32:50.520Z,100671.92
2019-05-30T23:34:58.674Z,100675.00
2019-05-30T23:37:05.371Z,100670.98
2019-05-30T23:39:11.807Z,100664.77
2019-05-30T23:41:18.280Z,100668.30
2019-05-30T23:43:24.706Z,100671.39
2019-05-30T23:45:31.255Z,100667.39
2019-05-30T23:47:37.805Z,100674.89
2019-05-30T23:49:44.208Z,100666.06
2019-05-30T23:51:51.863Z,100663.85
2019-05-30T23:53:58.688Z,100664.28
2019-05-30T23:56:05.239Z,100660.77
2019-05-30T23:58:11.710Z,100662.96
